Matfield Green, Kansas
Current Conditions -  °F | °C
As of 5:53 PM on Wednesday 26 Nov 2014 (Local Time) from KEMP Reporting Station
Clear Clear  
Wind Chill: 22°   Ceiling: Unl
Heat Index: 33°   Visibility: 10mi
Dew Point: 23°   Wind: 17mph
Humidity: 66%   Direction: 310°NW
Pressure: 30.28"   Gusts: NA
Location:  38.16°N, 96.56°W
Report Text: KEMP 262353Z AUTO 31015KT 10SM CLR 01/M05 A3028 RMK AO2 SLP265 T00061050 10078 20000 51037
Loading
Personal Weather Stations






























Interactive Weather Map New forecast layout! Learn more

10-Day Weather Forecast

Advertisements
Track Severe Weather on mobile